createdAt,value
2022-09-15T00:00:06.099Z,15.93
2022-09-15T00:01:06.080Z,15.93
2022-09-15T00:02:06.203Z,15.95
2022-09-15T00:03:06.158Z,15.93
2022-09-15T00:04:06.088Z,15.91
2022-09-15T00:05:06.062Z,15.92
2022-09-15T00:06:06.040Z,15.92
2022-09-15T00:07:06.026Z,15.91
2022-09-15T00:08:06.045Z,15.91
2022-09-15T00:09:06.014Z,15.91
2022-09-15T00:10:06.019Z,15.92
2022-09-15T00:11:05.981Z,15.91
2022-09-15T00:12:06.034Z,15.89
2022-09-15T00:13:06.810Z,15.89
2022-09-15T00:14:06.024Z,15.88
2022-09-15T00:15:05.947Z,15.88
2022-09-15T00:16:05.925Z,15.85
2022-09-15T00:17:05.983Z,15.85
2022-09-15T00:18:05.909Z,15.85
2022-09-15T00:19:06.030Z,15.85
2022-09-15T00:20:05.888Z,15.84
2022-09-15T00:21:05.891Z,15.84
2022-09-15T00:22:05.997Z,15.81
2022-09-15T00:23:05.900Z,15.78
2022-09-15T00:24:06.040Z,15.76
2022-09-15T00:25:05.993Z,15.74
2022-09-15T00:26:05.984Z,15.71
2022-09-15T00:27:05.822Z,15.71
2022-09-15T00:28:05.811Z,15.70
2022-09-15T00:29:05.800Z,15.68
2022-09-15T00:30:05.792Z,15.67
2022-09-15T00:31:05.891Z,15.67
2022-09-15T00:32:05.776Z,15.64
2022-09-15T00:33:05.744Z,15.64
2022-09-15T00:34:05.849Z,15.60
2022-09-15T00:35:05.733Z,15.62
2022-09-15T00:36:06.519Z,15.58
2022-09-15T00:37:06.517Z,15.56
2022-09-15T00:38:05.696Z,15.53
2022-09-15T00:39:05.822Z,15.55
2022-09-15T00:40:05.715Z,15.55
2022-09-15T00:41:05.855Z,15.53
2022-09-15T00:42:05.666Z,15.53
2022-09-15T00:43:05.665Z,15.55
2022-09-15T00:44:06.641Z,15.55
2022-09-15T00:45:05.681Z,15.58
2022-09-15T00:46:05.682Z,15.58
2022-09-15T00:47:18.715Z,15.56
2022-09-15T00:48:05.616Z,15.58
2022-09-15T00:49:05.579Z,15.58
2022-09-15T00:50:05.579Z,15.59
2022-09-15T00:51:05.574Z,15.58
2022-09-15T00:52:05.725Z,15.60
2022-09-15T00:53:05.545Z,15.56
2022-09-15T00:54:05.549Z,15.56
2022-09-15T00:55:05.545Z,15.55
2022-09-15T00:56:05.529Z,15.55
2022-09-15T00:57:05.507Z,15.55
2022-09-15T00:58:05.499Z,15.53
2022-09-15T00:59:05.480Z,15.52
2022-09-15T01:00:05.472Z,15.52
2022-09-15T01:01:05.500Z,15.51
2022-09-15T01:02:05.553Z,15.51
2022-09-15T01:03:05.443Z,15.48
2022-09-15T01:04:05.421Z,15.48
2022-09-15T01:05:05.427Z,15.51
2022-09-15T01:07:45.649Z,15.51
2022-09-15T01:08:17.636Z,15.46
2022-09-15T01:09:17.692Z,15.46
2022-09-15T01:10:17.610Z,15.43
2022-09-15T01:11:17.644Z,15.43
2022-09-15T01:12:17.597Z,15.40
2022-09-15T01:13:17.578Z,15.35
2022-09-15T01:14:17.573Z,15.35
2022-09-15T01:15:17.568Z,15.34
2022-09-15T01:16:17.627Z,15.34
2022-09-15T01:17:17.534Z,15.30
2022-09-15T01:18:17.532Z,15.30
2022-09-15T01:19:17.531Z,15.28
2022-09-15T01:20:17.509Z,15.28
2022-09-15T01:21:17.533Z,15.28
2022-09-15T01:22:17.493Z,15.30
2022-09-15T01:23:17.471Z,15.28
2022-09-15T01:24:17.468Z,15.28
2022-09-15T01:25:17.450Z,15.27
2022-09-15T01:26:17.462Z,15.27
2022-09-15T01:27:38.126Z,15.25
2022-09-15T01:28:17.434Z,15.23
2022-09-15T01:29:17.403Z,15.22
2022-09-15T01:30:17.405Z,15.22
2022-09-15T01:31:17.483Z,15.22
2022-09-15T01:32:17.403Z,15.22
2022-09-15T01:33:17.363Z,15.20
2022-09-15T01:34:17.361Z,15.19
2022-09-15T01:35:17.345Z,15.18
2022-09-15T01:36:17.377Z,15.19
2022-09-15T01:37:17.325Z,15.18
2022-09-15T01:38:17.344Z,15.19
2022-09-15T01:39:17.301Z,15.20
2022-09-15T01:40:17.418Z,15.18
2022-09-15T01:41:17.306Z,15.16
2022-09-15T01:42:17.279Z,15.18
2022-09-15T01:43:17.261Z,15.15
2022-09-15T01:44:17.260Z,15.15
2022-09-15T01:45:17.253Z,15.13
2022-09-15T01:46:17.337Z,15.12
2022-09-15T01:47:17.217Z,15.11
2022-09-15T01:48:17.244Z,15.12
2022-09-15T01:49:17.191Z,15.09
2022-09-15T01:50:17.203Z,15.09
2022-09-15T01:51:17.172Z,15.09
2022-09-15T01:52:17.259Z,15.09
2022-09-15T01:53:17.148Z,15.07
2022-09-15T01:54:17.147Z,15.05
2022-09-15T01:55:17.143Z,15.05
2022-09-15T01:56:17.119Z,15.03
2022-09-15T01:57:17.114Z,15.04
2022-09-15T01:58:17.103Z,15.01
2022-09-15T01:59:17.086Z,15.00
2022-09-15T02:00:17.106Z,15.00
2022-09-15T02:01:17.155Z,15.00
2022-09-15T02:02:17.119Z,14.98
2022-09-15T02:03:17.064Z,14.98
2022-09-15T02:04:17.037Z,15.00
2022-09-15T02:05:17.040Z,14.98
2022-09-15T02:06:17.023Z,15.01
2022-09-15T02:07:17.109Z,15.01
2022-09-15T02:08:16.994Z,15.00
2022-09-15T02:09:16.973Z,15.01
2022-09-15T02:10:16.982Z,15.01
2022-09-15T02:11:16.987Z,15.01
2022-09-15T02:12:16.974Z,15.01
2022-09-15T02:13:16.978Z,15.01
2022-09-15T02:14:16.934Z,15.01
2022-09-15T02:15:16.930Z,15.01
2022-09-15T02:16:16.987Z,15.01
2022-09-15T02:17:16.900Z,15.00
2022-09-15T02:18:16.904Z,15.00
2022-09-15T02:19:16.871Z,14.98
2022-09-15T02:20:16.882Z,14.98
2022-09-15T02:21:16.851Z,14.98
2022-09-15T02:22:16.851Z,14.97
2022-09-15T02:23:16.832Z,14.98
2022-09-15T02:24:16.822Z,14.98
2022-09-15T02:25:16.828Z,15.01
2022-09-15T02:26:16.808Z,15.00
2022-09-15T02:27:16.820Z,15.00
2022-09-15T02:28:16.780Z,15.01
2022-09-15T02:29:16.776Z,14.98
2022-09-15T02:30:16.793Z,15.01
2022-09-15T02:31:16.826Z,14.98
2022-09-15T02:32:16.738Z,15.00
2022-09-15T02:33:16.724Z,15.01
2022-09-15T02:34:16.717Z,15.00
2022-09-15T02:35:16.719Z,14.98
2022-09-15T02:36:16.700Z,14.98
2022-09-15T02:37:16.678Z,15.00
2022-09-15T02:38:16.673Z,15.00
2022-09-15T02:39:16.664Z,15.00
2022-09-15T02:40:16.709Z,14.94
2022-09-15T02:41:16.661Z,14.91
2022-09-15T02:42:16.639Z,14.87
2022-09-15T02:43:16.648Z,14.83
2022-09-15T02:44:16.618Z,14.82
2022-09-15T02:45:16.719Z,14.80
2022-09-15T02:46:16.612Z,14.83
2022-09-15T02:47:16.658Z,14.83
2022-09-15T02:48:16.611Z,14.82
2022-09-15T02:49:16.559Z,14.82
2022-09-15T02:50:16.609Z,14.83
2022-09-15T02:51:16.665Z,14.83
2022-09-15T02:52:16.665Z,14.85
2022-09-15T02:53:16.599Z,14.85
2022-09-15T02:54:16.505Z,14.86
2022-09-15T02:55:16.528Z,14.87
2022-09-15T02:56:16.482Z,14.86
2022-09-15T02:57:16.678Z,14.86
2022-09-15T02:58:16.604Z,14.86
2022-09-15T02:59:16.605Z,14.85
2022-09-15T03:00:16.605Z,14.85
2022-09-15T03:01:16.489Z,14.86
2022-09-15T03:02:16.457Z,14.86
2022-09-15T03:03:16.405Z,14.85
2022-09-15T03:04:16.588Z,14.87
2022-09-15T03:05:16.662Z,14.85
2022-09-15T03:06:16.688Z,14.85
2022-09-15T03:07:16.590Z,14.85
2022-09-15T03:08:16.357Z,14.85
2022-09-15T03:09:16.349Z,14.85
2022-09-15T03:10:16.361Z,14.83
2022-09-15T03:11:16.316Z,14.82
2022-09-15T03:12:16.310Z,14.82
2022-09-15T03:13:16.608Z,14.80
2022-09-15T03:14:16.297Z,14.80
2022-09-15T03:15:16.651Z,14.78
2022-09-15T03:16:16.353Z,14.79
2022-09-15T03:17:16.258Z,14.78
2022-09-15T03:18:16.591Z,14.79
2022-09-15T03:19:16.580Z,14.78
2022-09-15T03:20:16.589Z,14.75
2022-09-15T03:21:16.210Z,14.75
2022-09-15T03:22:16.210Z,14.74
2022-09-15T03:23:16.216Z,14.75
2022-09-15T03:24:16.185Z,14.74
2022-09-15T03:25:16.181Z,14.72
2022-09-15T03:26:16.159Z,14.72
2022-09-15T03:27:16.152Z,14.72
2022-09-15T03:28:16.178Z,14.71
2022-09-15T03:29:16.135Z,14.71
2022-09-15T03:30:16.134Z,14.71
2022-09-15T03:31:16.171Z,14.69
2022-09-15T03:32:16.097Z,14.67
2022-09-15T03:33:16.089Z,14.67
2022-09-15T03:34:16.090Z,14.66
2022-09-15T03:35:16.075Z,14.67
2022-09-15T03:36:16.065Z,14.67
2022-09-15T03:37:16.043Z,14.66
2022-09-15T03:38:16.129Z,14.67
2022-09-15T03:39:16.031Z,14.66
2022-09-15T03:40:16.124Z,14.64
2022-09-15T03:41:16.014Z,14.63
2022-09-15T03:42:16.019Z,14.63
2022-09-15T03:43:18.698Z,14.64
2022-09-15T03:44:15.972Z,14.63
2022-09-15T03:45:15.977Z,14.61
2022-09-15T03:46:15.976Z,14.60
2022-09-15T03:47:15.934Z,14.61
2022-09-15T03:48:15.925Z,14.63
2022-09-15T03:49:15.931Z,14.61
2022-09-15T03:50:15.907Z,14.60
2022-09-15T03:51:15.901Z,14.61
2022-09-15T03:52:15.889Z,14.60
2022-09-15T03:53:15.866Z,14.60
2022-09-15T03:54:15.874Z,14.59
2022-09-15T03:55:16.060Z,14.57
2022-09-15T03:56:15.850Z,14.59
2022-09-15T03:57:15.841Z,14.57
2022-09-15T03:58:15.829Z,14.56
2022-09-15T03:59:15.828Z,14.56
2022-09-15T04:00:15.803Z,14.53
2022-09-15T04:01:16.009Z,14.54
2022-09-15T04:02:16.105Z,14.54
2022-09-15T04:03:15.902Z,14.53
2022-09-15T04:04:15.780Z,14.52
2022-09-15T04:05:15.742Z,14.53
2022-09-15T04:06:16.490Z,14.54
2022-09-15T04:07:15.720Z,14.53
2022-09-15T04:08:15.716Z,14.53
2022-09-15T04:09:15.719Z,14.54
2022-09-15T04:10:15.697Z,14.49
2022-09-15T04:11:15.686Z,14.48
2022-09-15T04:12:15.684Z,14.49
2022-09-15T04:13:16.629Z,14.48
2022-09-15T04:14:15.871Z,14.45
2022-09-15T04:15:15.607Z,14.42
2022-09-15T04:16:15.713Z,14.41
2022-09-15T04:17:15.617Z,14.39
2022-09-15T04:18:15.584Z,14.39
2022-09-15T04:19:15.546Z,14.38
2022-09-15T04:20:15.596Z,14.36
2022-09-15T04:21:15.527Z,14.36
2022-09-15T04:22:17.835Z,14.38
2022-09-15T04:23:15.495Z,14.35
2022-09-15T04:24:15.500Z,14.36
2022-09-15T04:25:15.474Z,14.35
2022-09-15T04:26:15.469Z,14.35
2022-09-15T04:27:15.453Z,14.31
2022-09-15T04:28:15.460Z,14.34
2022-09-15T04:29:15.456Z,14.27
2022-09-15T04:30:15.429Z,14.24
2022-09-15T04:31:15.452Z,14.23
2022-09-15T04:32:15.418Z,14.21
2022-09-15T04:33:15.436Z,14.17
2022-09-15T04:34:15.409Z,14.19
2022-09-15T04:35:15.379Z,14.19
2022-09-15T04:36:15.359Z,14.16
2022-09-15T04:37:15.349Z,14.16
2022-09-15T04:38:15.340Z,14.19
2022-09-15T04:39:15.346Z,14.13
2022-09-15T04:40:15.385Z,14.12
2022-09-15T04:41:15.315Z,14.11
2022-09-15T04:42:15.297Z,14.11
2022-09-15T04:43:15.291Z,14.12
2022-09-15T04:44:15.298Z,14.13
2022-09-15T04:45:15.263Z,14.16
2022-09-15T04:46:15.321Z,14.13
2022-09-15T04:47:15.241Z,14.16
2022-09-15T04:48:15.230Z,14.12
2022-09-15T04:49:15.229Z,14.11
2022-09-15T04:50:15.218Z,14.11
2022-09-15T04:51:15.200Z,14.09
2022-09-15T04:52:15.194Z,14.05
2022-09-15T04:53:15.185Z,14.04
2022-09-15T04:54:15.229Z,14.02
2022-09-15T04:55:15.153Z,13.99
2022-09-15T04:56:15.153Z,13.94
2022-09-15T04:57:15.255Z,13.94
2022-09-15T04:58:15.127Z,13.88
2022-09-15T04:59:15.143Z,13.87
2022-09-15T05:00:15.105Z,13.84
2022-09-15T05:01:15.277Z,13.81
2022-09-15T05:02:15.151Z,13.83
2022-09-15T05:03:15.085Z,13.83
2022-09-15T05:04:15.073Z,13.83
2022-09-15T05:05:15.050Z,13.81
2022-09-15T05:06:15.045Z,13.81
2022-09-15T05:07:15.080Z,13.80
2022-09-15T05:08:15.023Z,13.81
2022-09-15T05:09:15.029Z,13.81
2022-09-15T05:10:14.998Z,13.80
2022-09-15T05:11:14.986Z,13.83
2022-09-15T05:12:14.982Z,13.84
2022-09-15T05:13:14.972Z,13.87
2022-09-15T05:14:14.966Z,13.88
2022-09-15T05:15:14.940Z,13.90
2022-09-15T05:16:15.031Z,13.91
2022-09-15T05:17:14.917Z,13.93
2022-09-15T05:18:14.913Z,13.93
2022-09-15T05:19:14.932Z,13.93
2022-09-15T05:20:14.894Z,13.91
2022-09-15T05:21:14.902Z,13.93
2022-09-15T05:22:14.876Z,13.93
2022-09-15T05:23:14.855Z,13.91
2022-09-15T05:24:14.864Z,13.93
2022-09-15T05:25:14.836Z,13.94
2022-09-15T05:26:14.828Z,13.96
2022-09-15T05:27:14.825Z,13.99
2022-09-15T05:28:14.819Z,14.01
2022-09-15T05:29:14.812Z,14.04
2022-09-15T05:30:36.833Z,14.04
2022-09-15T05:31:14.824Z,14.05
2022-09-15T05:32:14.771Z,14.09
2022-09-15T05:33:14.808Z,14.11
2022-09-15T05:34:14.740Z,14.13
2022-09-15T05:35:14.738Z,14.12
2022-09-15T05:36:14.737Z,14.16
2022-09-15T05:37:14.714Z,14.12
2022-09-15T05:38:14.722Z,14.12
2022-09-15T05:39:14.700Z,14.08
2022-09-15T05:40:14.717Z,14.09
2022-09-15T05:41:14.677Z,14.09
2022-09-15T05:42:14.671Z,14.13
2022-09-15T05:43:14.651Z,14.12
2022-09-15T05:44:14.655Z,14.13
2022-09-15T05:45:14.629Z,14.17
2022-09-15T05:46:14.673Z,14.20
2022-09-15T05:47:14.619Z,14.19
2022-09-15T05:48:14.592Z,14.12
2022-09-15T05:49:14.610Z,14.12
2022-09-15T05:50:14.571Z,14.11
2022-09-15T05:51:14.566Z,14.12
2022-09-15T05:52:14.554Z,14.12
2022-09-15T05:53:14.548Z,14.13
2022-09-15T05:54:14.553Z,14.16
2022-09-15T05:55:14.537Z,14.19
2022-09-15T05:56:14.518Z,14.20
2022-09-15T05:57:14.499Z,14.21
2022-09-15T05:58:14.595Z,14.23
2022-09-15T05:59:15.198Z,14.27
2022-09-15T06:00:14.651Z,14.29
2022-09-15T06:01:14.466Z,14.34
2022-09-15T06:02:14.554Z,14.36
2022-09-15T06:03:14.479Z,14.39
2022-09-15T06:04:14.433Z,14.42
2022-09-15T06:05:14.416Z,14.45
2022-09-15T06:06:14.409Z,14.48
2022-09-15T06:07:14.392Z,14.53
2022-09-15T06:08:14.394Z,14.59
2022-09-15T06:09:14.401Z,14.63
2022-09-15T06:10:14.360Z,14.66
2022-09-15T06:11:14.350Z,14.66
2022-09-15T06:12:14.609Z,14.64
2022-09-15T06:13:14.359Z,14.66
2022-09-15T06:14:14.333Z,14.67
2022-09-15T06:15:14.309Z,14.69
2022-09-15T06:16:14.709Z,14.67
2022-09-15T06:17:14.282Z,14.69
2022-09-15T06:18:14.596Z,14.71
2022-09-15T06:19:14.271Z,14.69
2022-09-15T06:20:14.250Z,14.71
2022-09-15T06:21:14.245Z,14.74
2022-09-15T06:22:14.503Z,14.72
2022-09-15T06:23:14.224Z,14.75
2022-09-15T06:24:14.399Z,14.78
2022-09-15T06:25:14.196Z,14.82
2022-09-15T06:26:14.185Z,14.85
2022-09-15T06:27:14.180Z,14.87
2022-09-15T06:28:14.159Z,14.86
2022-09-15T06:29:14.175Z,14.91
2022-09-15T06:30:14.151Z,14.90
2022-09-15T06:31:14.144Z,14.90
2022-09-15T06:32:14.163Z,14.86
2022-09-15T06:33:14.117Z,14.87
2022-09-15T06:34:14.112Z,14.87
2022-09-15T06:35:14.093Z,14.91
2022-09-15T06:36:14.077Z,14.93
2022-09-15T06:37:14.077Z,14.98
2022-09-15T06:38:14.074Z,15.00
2022-09-15T06:39:14.080Z,15.04
2022-09-15T06:40:14.097Z,15.13
2022-09-15T06:41:14.029Z,15.13
2022-09-15T06:42:14.119Z,15.13
2022-09-15T06:43:14.018Z,15.13
2022-09-15T06:44:14.088Z,15.09
2022-09-15T06:45:14.022Z,15.07
2022-09-15T06:46:14.050Z,15.07
2022-09-15T06:47:13.968Z,15.04
2022-09-15T06:48:24.416Z,15.04
2022-09-15T06:49:14.032Z,15.05
2022-09-15T06:50:13.931Z,15.07
2022-09-15T06:51:13.921Z,15.20
2022-09-15T06:52:13.906Z,15.19
2022-09-15T06:53:13.983Z,15.44
2022-09-15T06:54:14.158Z,15.35
2022-09-15T06:55:13.877Z,15.35
2022-09-15T06:56:13.935Z,15.35
2022-09-15T06:57:13.862Z,15.38
2022-09-15T06:58:13.840Z,15.44
2022-09-15T06:59:14.649Z,15.66
2022-09-15T07:00:13.819Z,15.66
2022-09-15T07:01:13.815Z,15.64
2022-09-15T07:02:13.925Z,15.53
2022-09-15T07:03:13.895Z,15.48
2022-09-15T07:04:13.776Z,15.70
2022-09-15T07:05:13.769Z,15.64
2022-09-15T07:06:13.756Z,15.70
2022-09-15T07:07:13.916Z,15.66
2022-09-15T07:08:14.155Z,15.86
2022-09-15T07:09:13.728Z,16.03
2022-09-15T07:10:13.711Z,15.96
2022-09-15T07:11:13.715Z,15.86
2022-09-15T07:12:13.707Z,15.78
2022-09-15T07:13:13.701Z,15.78
2022-09-15T07:14:13.760Z,15.74
2022-09-15T07:15:13.667Z,15.76
2022-09-15T07:16:13.699Z,15.80
2022-09-15T07:17:13.643Z,15.74
2022-09-15T07:18:13.628Z,15.70
2022-09-15T07:19:13.636Z,15.66
2022-09-15T07:20:14.540Z,15.59
2022-09-15T07:21:13.607Z,15.59
2022-09-15T07:22:13.590Z,15.62
2022-09-15T07:23:13.579Z,15.60
2022-09-15T07:24:13.578Z,15.62
2022-09-15T07:25:13.554Z,15.64
2022-09-15T07:26:13.552Z,15.71
2022-09-15T07:27:13.537Z,15.81
2022-09-15T07:28:13.527Z,16.18
2022-09-15T07:29:13.531Z,16.26
2022-09-15T07:30:13.501Z,16.10
2022-09-15T07:31:13.537Z,16.04
2022-09-15T07:32:13.491Z,15.99
2022-09-15T07:33:13.474Z,15.93
2022-09-15T07:34:13.476Z,15.92
2022-09-15T07:35:13.451Z,15.91
2022-09-15T07:36:13.451Z,15.89
2022-09-15T07:37:13.436Z,15.89
2022-09-15T07:38:13.422Z,15.85
2022-09-15T07:39:13.428Z,15.84
2022-09-15T07:40:13.436Z,15.85
2022-09-15T07:41:13.395Z,15.92
2022-09-15T07:42:15.396Z,15.93
2022-09-15T07:43:13.379Z,15.89
2022-09-15T07:44:13.359Z,15.80
2022-09-15T07:45:13.352Z,15.76
2022-09-15T07:46:13.382Z,15.73
2022-09-15T07:47:13.319Z,15.67
2022-09-15T07:48:13.310Z,15.67
2022-09-15T07:49:13.320Z,15.62
2022-09-15T07:50:13.287Z,15.59
2022-09-15T07:51:13.279Z,15.56
2022-09-15T07:52:13.266Z,15.58
2022-09-15T07:53:13.260Z,15.56
2022-09-15T07:54:13.261Z,15.53
2022-09-15T07:55:13.252Z,15.55
2022-09-15T07:56:13.225Z,15.56
2022-09-15T07:57:13.214Z,15.56
2022-09-15T07:58:13.202Z,15.59
2022-09-15T07:59:13.212Z,15.64
2022-09-15T08:00:13.185Z,15.64
2022-09-15T08:01:13.230Z,15.66
2022-09-15T08:02:13.198Z,15.62
2022-09-15T08:03:13.155Z,15.64
2022-09-15T08:04:13.165Z,15.64
2022-09-15T08:05:13.135Z,15.68
2022-09-15T08:06:13.120Z,15.67
2022-09-15T08:07:13.126Z,15.67
2022-09-15T08:08:13.119Z,15.76
2022-09-15T08:09:13.096Z,16.07
2022-09-15T08:10:13.075Z,15.99
2022-09-15T08:11:17.698Z,15.92
2022-09-15T08:12:13.199Z,15.88
2022-09-15T08:13:13.053Z,15.85
2022-09-15T08:14:13.044Z,15.84
2022-09-15T08:15:13.042Z,15.85
2022-09-15T08:16:13.073Z,15.88
2022-09-15T08:17:13.005Z,15.96
2022-09-15T08:18:12.990Z,16.30
2022-09-15T08:19:12.993Z,16.22
2022-09-15T08:20:12.980Z,16.29
2022-09-15T08:21:12.966Z,16.16
2022-09-15T08:22:12.946Z,16.11
2022-09-15T08:23:12.943Z,16.10
2022-09-15T08:24:12.938Z,16.37
2022-09-15T08:25:12.923Z,16.60
2022-09-15T08:26:14.365Z,16.77
2022-09-15T08:27:12.895Z,16.66
2022-09-15T08:28:12.883Z,16.59
2022-09-15T08:29:12.891Z,16.52
2022-09-15T08:30:12.990Z,16.51
2022-09-15T08:31:12.912Z,16.44
2022-09-15T08:32:12.842Z,16.42
2022-09-15T08:33:12.844Z,16.44
2022-09-15T08:34:12.831Z,16.33
2022-09-15T08:35:12.810Z,16.32
2022-09-15T08:36:12.801Z,16.30
2022-09-15T08:37:12.795Z,16.32
2022-09-15T08:38:12.803Z,16.32
2022-09-15T08:39:12.776Z,16.37
2022-09-15T08:40:12.850Z,16.41
2022-09-15T08:41:12.748Z,16.37
2022-09-15T08:42:12.736Z,16.36
2022-09-15T08:43:12.743Z,16.34
2022-09-15T08:44:12.729Z,16.37
2022-09-15T08:45:12.708Z,16.47
2022-09-15T08:46:12.763Z,16.47
2022-09-15T08:47:12.692Z,16.50
2022-09-15T08:48:12.692Z,16.57
2022-09-15T08:49:12.665Z,16.55
2022-09-15T08:50:12.653Z,16.52
2022-09-15T08:51:12.656Z,16.52
2022-09-15T08:52:12.717Z,16.59
2022-09-15T08:53:12.635Z,16.60
2022-09-15T08:54:12.629Z,16.55
2022-09-15T08:55:12.605Z,16.50
2022-09-15T08:56:12.591Z,16.45
2022-09-15T08:57:12.647Z,16.41
2022-09-15T08:58:12.629Z,16.36
2022-09-15T08:59:12.566Z,16.32
2022-09-15T09:00:12.640Z,16.32
2022-09-15T09:01:12.588Z,16.32
2022-09-15T09:02:12.588Z,16.32
2022-09-15T09:03:12.560Z,16.33
2022-09-15T09:04:16.398Z,16.33
2022-09-15T09:05:12.637Z,16.30
2022-09-15T09:06:12.491Z,16.30
2022-09-15T09:07:12.477Z,16.30
2022-09-15T09:08:12.596Z,16.30
2022-09-15T09:09:12.454Z,16.32
2022-09-15T09:10:12.452Z,16.30
2022-09-15T09:11:12.573Z,16.33
2022-09-15T09:12:12.422Z,16.34
2022-09-15T09:13:12.581Z,16.36
2022-09-15T09:14:12.400Z,16.36
2022-09-15T09:15:12.578Z,16.37
2022-09-15T09:16:12.639Z,16.37
2022-09-15T09:17:12.374Z,16.33
2022-09-15T09:18:12.601Z,16.34
2022-09-15T09:19:12.391Z,16.32
2022-09-15T09:20:12.595Z,16.30
2022-09-15T09:21:12.520Z,16.29
2022-09-15T09:22:12.490Z,16.29
2022-09-15T09:23:12.555Z,16.27
2022-09-15T09:24:12.402Z,16.26
2022-09-15T09:25:26.837Z,16.29
2022-09-15T09:26:12.273Z,16.27
2022-09-15T09:27:12.277Z,16.30
2022-09-15T09:28:12.595Z,16.34
2022-09-15T09:29:12.610Z,16.37
2022-09-15T09:30:12.230Z,16.40
2022-09-15T09:31:12.270Z,16.42
2022-09-15T09:32:12.425Z,16.45
2022-09-15T09:33:12.201Z,16.44
2022-09-15T09:34:12.186Z,16.47
2022-09-15T09:35:12.179Z,16.48
2022-09-15T09:36:12.169Z,16.54
2022-09-15T09:37:12.187Z,16.57
2022-09-15T09:38:12.143Z,16.62
2022-09-15T09:39:12.144Z,16.63
2022-09-15T09:40:12.158Z,16.66
2022-09-15T09:41:12.119Z,16.70
2022-09-15T09:42:12.143Z,16.72
2022-09-15T09:43:12.091Z,16.72
2022-09-15T09:44:12.096Z,16.75
2022-09-15T09:45:12.091Z,16.80
2022-09-15T09:46:12.138Z,16.81
2022-09-15T09:47:12.072Z,16.82
2022-09-15T09:48:12.060Z,16.82
2022-09-15T09:49:12.110Z,16.84
2022-09-15T09:50:12.019Z,16.82
2022-09-15T09:51:12.020Z,16.84
2022-09-15T09:52:12.214Z,16.80
2022-09-15T09:53:12.048Z,16.78
2022-09-15T09:54:11.980Z,16.84
2022-09-15T09:55:11.978Z,16.87
2022-09-15T09:56:12.023Z,16.88
2022-09-15T09:57:11.944Z,16.87
2022-09-15T09:58:11.938Z,16.87
2022-09-15T09:59:11.922Z,16.87
2022-09-15T10:00:11.925Z,16.87
2022-09-15T10:01:12.032Z,16.88
2022-09-15T10:02:11.948Z,16.91
2022-09-15T10:03:11.890Z,16.99
2022-09-15T10:04:11.963Z,17.02
2022-09-15T10:05:11.983Z,17.03
2022-09-15T10:06:11.874Z,17.06
2022-09-15T10:07:11.838Z,17.03
2022-09-15T10:08:11.838Z,17.00
2022-09-15T10:09:11.882Z,16.99
2022-09-15T10:10:11.875Z,16.96
2022-09-15T10:11:11.812Z,16.98
2022-09-15T10:12:11.922Z,17.00
2022-09-15T10:13:11.781Z,16.98
2022-09-15T10:14:11.778Z,16.99
2022-09-15T10:15:11.768Z,17.00
2022-09-15T10:16:12.052Z,17.05
2022-09-15T10:17:12.596Z,17.10
2022-09-15T10:18:11.726Z,17.17
2022-09-15T10:19:11.708Z,17.17
2022-09-15T10:20:11.875Z,17.22
2022-09-15T10:21:11.716Z,17.35
2022-09-15T10:22:11.751Z,17.33
2022-09-15T10:23:11.670Z,17.30
2022-09-15T10:24:12.810Z,17.27
2022-09-15T10:25:11.648Z,17.27
2022-09-15T10:26:11.657Z,17.27
2022-09-15T10:27:11.643Z,17.28
2022-09-15T10:28:11.660Z,17.30
2022-09-15T10:29:11.611Z,17.30
2022-09-15T10:30:11.642Z,17.27
2022-09-15T10:31:11.599Z,17.21
2022-09-15T10:32:11.636Z,17.20
2022-09-15T10:33:11.569Z,17.20
2022-09-15T10:34:11.556Z,17.21
2022-09-15T10:35:11.542Z,17.21
2022-09-15T10:36:11.556Z,17.24
2022-09-15T10:37:11.524Z,17.30
2022-09-15T10:38:11.519Z,17.33
2022-09-15T10:39:11.506Z,17.39
2022-09-15T10:40:11.575Z,17.45
2022-09-15T10:41:11.493Z,17.47
2022-09-15T10:42:11.479Z,17.49
2022-09-15T10:43:11.468Z,17.54
2022-09-15T10:44:11.460Z,17.74
2022-09-15T10:45:11.462Z,17.86
2022-09-15T10:46:11.496Z,17.91
2022-09-15T10:47:11.420Z,17.83
2022-09-15T10:48:11.416Z,17.84
2022-09-15T10:49:11.394Z,17.83
2022-09-15T10:50:11.485Z,17.91
2022-09-15T10:51:11.389Z,17.91
2022-09-15T10:52:11.368Z,17.87
2022-09-15T10:53:11.355Z,17.83
2022-09-15T10:54:11.354Z,17.87
2022-09-15T10:55:11.329Z,17.98
2022-09-15T10:56:11.351Z,18.02
2022-09-15T10:57:11.323Z,17.99
2022-09-15T10:58:11.311Z,18.04
2022-09-15T10:59:11.289Z,18.10
2022-09-15T11:00:11.286Z,18.16
2022-09-15T11:01:11.325Z,18.16
2022-09-15T11:02:11.300Z,18.14
2022-09-15T11:03:11.257Z,18.04
2022-09-15T11:04:11.252Z,18.01
2022-09-15T11:05:11.243Z,18.02
2022-09-15T11:06:11.238Z,17.94
2022-09-15T11:07:11.210Z,17.83
2022-09-15T11:08:11.203Z,17.77
2022-09-15T11:09:11.181Z,17.73
2022-09-15T11:10:11.179Z,17.71
2022-09-15T11:11:11.173Z,17.70
2022-09-15T11:12:11.161Z,17.68
2022-09-15T11:13:11.150Z,17.71
2022-09-15T11:14:11.148Z,17.68
2022-09-15T11:15:11.155Z,17.68
2022-09-15T11:16:11.173Z,17.74
2022-09-15T11:17:11.122Z,17.71
2022-09-15T11:18:11.098Z,17.71
2022-09-15T11:19:11.076Z,17.68
2022-09-15T11:20:11.074Z,17.66
2022-09-15T11:21:11.086Z,17.65
2022-09-15T11:22:11.065Z,17.70
2022-09-15T11:23:11.036Z,17.77
2022-09-15T11:24:11.031Z,17.79
2022-09-15T11:25:11.018Z,17.70
2022-09-15T11:26:11.022Z,17.68
2022-09-15T11:27:11.004Z,17.68
2022-09-15T11:28:10.994Z,17.79
2022-09-15T11:29:10.973Z,17.89
2022-09-15T11:30:10.986Z,17.98
2022-09-15T11:31:11.028Z,18.02
2022-09-15T11:32:10.958Z,18.05
2022-09-15T11:33:10.933Z,17.96
2022-09-15T11:34:10.930Z,17.94
2022-09-15T11:35:10.911Z,17.84
2022-09-15T11:36:10.923Z,17.81
2022-09-15T11:37:10.890Z,17.83
2022-09-15T11:38:12.978Z,17.87
2022-09-15T11:39:10.866Z,17.96
2022-09-15T11:40:10.883Z,17.95
2022-09-15T11:41:10.877Z,17.98
2022-09-15T11:42:10.857Z,18.01
2022-09-15T11:43:10.826Z,18.10
2022-09-15T11:44:16.001Z,18.14
2022-09-15T11:45:10.882Z,18.10
2022-09-15T11:46:10.854Z,18.07
2022-09-15T11:47:10.784Z,18.07
2022-09-15T11:48:10.778Z,18.05
2022-09-15T11:49:10.760Z,18.01
2022-09-15T11:50:10.759Z,17.98
2022-09-15T11:51:10.757Z,17.92
2022-09-15T11:52:10.736Z,17.84
2022-09-15T11:53:10.724Z,17.80
2022-09-15T11:54:10.714Z,17.76
2022-09-15T11:55:10.728Z,17.70
2022-09-15T11:56:10.694Z,17.62
2022-09-15T11:57:10.686Z,17.57
2022-09-15T11:58:10.674Z,17.55
2022-09-15T11:59:10.656Z,17.54
2022-09-15T12:00:10.676Z,17.51
2022-09-15T12:01:10.664Z,17.49
2022-09-15T12:02:10.688Z,17.47
2022-09-15T12:03:10.695Z,17.45
2022-09-15T12:04:10.612Z,17.40
2022-09-15T12:05:11.140Z,17.35
2022-09-15T12:06:10.617Z,17.33
2022-09-15T12:07:13.671Z,17.32
2022-09-15T12:08:10.584Z,17.33
2022-09-15T12:09:10.553Z,17.36
2022-09-15T12:10:10.637Z,17.38
2022-09-15T12:11:10.546Z,17.40
2022-09-15T12:12:10.580Z,17.43
2022-09-15T12:13:10.511Z,17.45
2022-09-15T12:14:10.511Z,17.49
2022-09-15T12:15:10.493Z,17.51
2022-09-15T12:16:10.644Z,17.55
2022-09-15T12:17:10.584Z,17.60
2022-09-15T12:18:34.456Z,17.66
2022-09-15T12:19:10.460Z,17.70
2022-09-15T12:20:10.449Z,17.70
2022-09-15T12:21:10.594Z,17.73
2022-09-15T12:22:10.434Z,17.71
2022-09-15T12:23:10.576Z,17.74
2022-09-15T12:24:10.395Z,17.73
2022-09-15T12:25:10.591Z,17.70
2022-09-15T12:26:10.592Z,17.70
2022-09-15T12:27:10.578Z,17.63
2022-09-15T12:28:10.355Z,17.62
2022-09-15T12:29:10.596Z,17.57
2022-09-15T12:30:10.350Z,17.57
2022-09-15T12:31:10.371Z,17.53
2022-09-15T12:32:10.317Z,17.53
2022-09-15T12:33:10.506Z,17.47
2022-09-15T12:34:10.306Z,17.49
2022-09-15T12:35:13.581Z,17.65
2022-09-15T12:36:10.599Z,17.87
2022-09-15T12:37:10.515Z,18.01
2022-09-15T12:38:10.399Z,18.13
2022-09-15T12:39:10.233Z,18.17
2022-09-15T12:40:10.313Z,18.25
2022-09-15T12:41:10.218Z,18.25
2022-09-15T12:42:10.209Z,18.29
2022-09-15T12:43:10.195Z,18.26
2022-09-15T12:44:10.191Z,18.28
2022-09-15T12:45:10.216Z,18.38
2022-09-15T12:46:10.255Z,18.47
2022-09-15T12:47:10.160Z,18.59
2022-09-15T12:48:10.153Z,18.74
2022-09-15T12:49:10.131Z,18.84
2022-09-15T12:50:10.137Z,18.89
2022-09-15T12:51:10.121Z,18.93
2022-09-15T12:52:10.117Z,18.90
2022-09-15T12:53:10.087Z,18.87